sensor_id;sensor_type;location;lat;lon;timestamp;P1;durP1;ratioP1;P2;durP2;ratioP2
26530;SDS011;14201;43.188;24.160;2024-03-07T00:01:33;33.80;;;22.77;;
26530;SDS011;14201;43.188;24.160;2024-03-07T00:03:58;37.20;;;23.75;;
26530;SDS011;14201;43.188;24.160;2024-03-07T00:06:24;35.45;;;23.70;;
26530;SDS011;14201;43.188;24.160;2024-03-07T00:08:50;33.17;;;23.08;;
26530;SDS011;14201;43.188;24.160;2024-03-07T00:11:15;36.53;;;24.33;;
26530;SDS011;14201;43.188;24.160;2024-03-07T00:13:41;38.95;;;24.08;;
26530;SDS011;14201;43.188;24.160;2024-03-07T00:16:07;31.42;;;22.45;;
26530;SDS011;14201;43.188;24.160;2024-03-07T00:18:35;35.83;;;23.85;;
26530;SDS011;14201;43.188;24.160;2024-03-07T00:21:02;33.45;;;22.83;;
26530;SDS011;14201;43.188;24.160;2024-03-07T00:23:28;30.92;;;22.60;;
26530;SDS011;14201;43.188;24.160;2024-03-07T00:25:54;36.65;;;23.17;;
26530;SDS011;14201;43.188;24.160;2024-03-07T00:28:19;34.70;;;23.17;;
26530;SDS011;14201;43.188;24.160;2024-03-07T00:30:45;34.30;;;21.73;;
26530;SDS011;14201;43.188;24.160;2024-03-07T00:33:11;35.75;;;22.58;;
26530;SDS011;14201;43.188;24.160;2024-03-07T00:35:37;37.33;;;22.75;;
26530;SDS011;14201;43.188;24.160;2024-03-07T00:38:03;28.90;;;20.23;;
26530;SDS011;14201;43.188;24.160;2024-03-07T00:40:29;30.25;;;20.65;;
26530;SDS011;14201;43.188;24.160;2024-03-07T00:42:54;31.23;;;20.83;;
26530;SDS011;14201;43.188;24.160;2024-03-07T00:45:20;32.30;;;22.55;;
26530;SDS011;14201;43.188;24.160;2024-03-07T00:47:46;33.00;;;21.95;;
26530;SDS011;14201;43.188;24.160;2024-03-07T00:50:13;31.70;;;22.42;;
26530;SDS011;14201;43.188;24.160;2024-03-07T00:52:39;34.65;;;22.67;;
26530;SDS011;14201;43.188;24.160;2024-03-07T00:55:05;33.55;;;22.15;;
26530;SDS011;14201;43.188;24.160;2024-03-07T00:57:34;30.60;;;21.45;;
26530;SDS011;14201;43.188;24.160;2024-03-07T01:00:00;34.33;;;23.35;;
26530;SDS011;14201;43.188;24.160;2024-03-07T01:02:26;36.33;;;21.75;;
26530;SDS011;14201;43.188;24.160;2024-03-07T01:04:52;36.35;;;22.48;;
26530;SDS011;14201;43.188;24.160;2024-03-07T01:07:18;36.97;;;23.73;;
26530;SDS011;14201;43.188;24.160;2024-03-07T01:09:44;35.17;;;23.23;;
26530;SDS011;14201;43.188;24.160;2024-03-07T01:12:10;44.92;;;23.48;;
26530;SDS011;14201;43.188;24.160;2024-03-07T01:14:36;33.38;;;22.33;;
26530;SDS011;14201;43.188;24.160;2024-03-07T01:17:02;35.72;;;24.35;;
26530;SDS011;14201;43.188;24.160;2024-03-07T01:19:27;38.60;;;23.63;;
26530;SDS011;14201;43.188;24.160;2024-03-07T01:21:53;33.40;;;22.95;;
26530;SDS011;14201;43.188;24.160;2024-03-07T01:24:19;34.92;;;22.88;;
26530;SDS011;14201;43.188;24.160;2024-03-07T01:26:45;36.65;;;24.23;;
26530;SDS011;14201;43.188;24.160;2024-03-07T01:29:11;39.03;;;23.77;;
26530;SDS011;14201;43.188;24.160;2024-03-07T01:31:37;37.65;;;23.63;;
26530;SDS011;14201;43.188;24.160;2024-03-07T01:34:02;41.75;;;23.52;;
26530;SDS011;14201;43.188;24.160;2024-03-07T01:36:28;38.63;;;24.95;;
26530;SDS011;14201;43.188;24.160;2024-03-07T01:38:53;37.10;;;24.58;;
26530;SDS011;14201;43.188;24.160;2024-03-07T01:41:19;38.17;;;22.85;;
26530;SDS011;14201;43.188;24.160;2024-03-07T01:43:44;39.22;;;24.83;;
26530;SDS011;14201;43.188;24.160;2024-03-07T01:46:10;36.80;;;23.77;;
26530;SDS011;14201;43.188;24.160;2024-03-07T01:48:36;36.58;;;23.90;;
26530;SDS011;14201;43.188;24.160;2024-03-07T01:51:03;39.50;;;23.52;;
26530;SDS011;14201;43.188;24.160;2024-03-07T01:53:30;38.67;;;24.33;;
26530;SDS011;14201;43.188;24.160;2024-03-07T01:55:59;34.47;;;23.15;;
26530;SDS011;14201;43.188;24.160;2024-03-07T01:58:27;33.85;;;23.80;;
26530;SDS011;14201;43.188;24.160;2024-03-07T02:00:54;43.55;;;25.92;;
26530;SDS011;14201;43.188;24.160;2024-03-07T02:03:20;38.63;;;25.38;;
26530;SDS011;14201;43.188;24.160;2024-03-07T02:05:45;40.25;;;25.48;;
26530;SDS011;14201;43.188;24.160;2024-03-07T02:08:11;40.53;;;25.35;;
26530;SDS011;14201;43.188;24.160;2024-03-07T02:10:37;43.75;;;23.95;;
26530;SDS011;14201;43.188;24.160;2024-03-07T02:13:03;37.80;;;25.25;;
26530;SDS011;14201;43.188;24.160;2024-03-07T02:15:29;39.38;;;25.40;;
26530;SDS011;14201;43.188;24.160;2024-03-07T02:17:54;52.45;;;27.92;;
26530;SDS011;14201;43.188;24.160;2024-03-07T02:20:20;44.22;;;28.02;;
26530;SDS011;14201;43.188;24.160;2024-03-07T02:22:46;46.58;;;29.40;;
26530;SDS011;14201;43.188;24.160;2024-03-07T02:25:11;42.65;;;29.02;;
26530;SDS011;14201;43.188;24.160;2024-03-07T02:27:37;46.20;;;28.23;;
26530;SDS011;14201;43.188;24.160;2024-03-07T02:30:04;46.55;;;30.35;;
26530;SDS011;14201;43.188;24.160;2024-03-07T02:32:33;47.07;;;28.77;;
26530;SDS011;14201;43.188;24.160;2024-03-07T02:35:02;45.35;;;29.42;;
26530;SDS011;14201;43.188;24.160;2024-03-07T02:37:31;35.80;;;21.80;;
26530;SDS011;14201;43.188;24.160;2024-03-07T02:39:57;45.25;;;27.40;;
26530;SDS011;14201;43.188;24.160;2024-03-07T02:42:23;42.30;;;29.00;;
26530;SDS011;14201;43.188;24.160;2024-03-07T02:44:49;43.47;;;27.42;;
26530;SDS011;14201;43.188;24.160;2024-03-07T02:47:14;40.55;;;27.40;;
26530;SDS011;14201;43.188;24.160;2024-03-07T02:49:40;40.83;;;25.92;;
26530;SDS011;14201;43.188;24.160;2024-03-07T02:52:06;39.88;;;27.30;;
26530;SDS011;14201;43.188;24.160;2024-03-07T02:54:32;39.05;;;26.15;;
26530;SDS011;14201;43.188;24.160;2024-03-07T02:56:58;37.85;;;26.13;;
26530;SDS011;14201;43.188;24.160;2024-03-07T02:59:24;39.33;;;27.10;;
26530;SDS011;14201;43.188;24.160;2024-03-07T03:01:50;40.47;;;27.90;;
26530;SDS011;14201;43.188;24.160;2024-03-07T03:04:16;39.88;;;27.35;;
26530;SDS011;14201;43.188;24.160;2024-03-07T03:06:42;41.05;;;27.58;;
26530;SDS011;14201;43.188;24.160;2024-03-07T03:09:08;39.33;;;25.92;;
26530;SDS011;14201;43.188;24.160;2024-03-07T03:11:38;38.75;;;24.95;;
26530;SDS011;14201;43.188;24.160;2024-03-07T03:14:04;39.17;;;26.25;;
26530;SDS011;14201;43.188;24.160;2024-03-07T03:16:29;40.10;;;27.30;;
26530;SDS011;14201;43.188;24.160;2024-03-07T03:18:56;43.67;;;29.65;;
26530;SDS011;14201;43.188;24.160;2024-03-07T03:21:22;47.35;;;30.88;;
26530;SDS011;14201;43.188;24.160;2024-03-07T03:23:48;47.20;;;32.65;;
26530;SDS011;14201;43.188;24.160;2024-03-07T03:26:14;42.42;;;29.42;;
26530;SDS011;14201;43.188;24.160;2024-03-07T03:28:41;47.47;;;29.85;;
26530;SDS011;14201;43.188;24.160;2024-03-07T03:31:07;46.75;;;29.45;;
26530;SDS011;14201;43.188;24.160;2024-03-07T03:33:33;44.17;;;28.40;;
26530;SDS011;14201;43.188;24.160;2024-03-07T03:35:59;38.08;;;25.90;;
26530;SDS011;14201;43.188;24.160;2024-03-07T03:38:24;37.90;;;26.02;;
26530;SDS011;14201;43.188;24.160;2024-03-07T03:40:50;36.38;;;24.40;;
26530;SDS011;14201;43.188;24.160;2024-03-07T03:43:16;40.90;;;25.52;;
26530;SDS011;14201;43.188;24.160;2024-03-07T03:45:43;39.17;;;26.02;;
26530;SDS011;14201;43.188;24.160;2024-03-07T03:48:09;43.25;;;25.90;;
26530;SDS011;14201;43.188;24.160;2024-03-07T03:50:36;37.08;;;25.20;;
26530;SDS011;14201;43.188;24.160;2024-03-07T03:53:01;41.85;;;25.48;;
26530;SDS011;14201;43.188;24.160;2024-03-07T03:55:29;38.60;;;25.75;;
26530;SDS011;14201;43.188;24.160;2024-03-07T03:57:54;40.85;;;25.35;;
26530;SDS011;14201;43.188;24.160;2024-03-07T04:00:20;39.60;;;26.38;;
26530;SDS011;14201;43.188;24.160;2024-03-07T04:02:48;38.65;;;24.75;;
26530;SDS011;14201;43.188;24.160;2024-03-07T04:05:14;38.40;;;26.13;;
26530;SDS011;14201;43.188;24.160;2024-03-07T04:07:41;36.85;;;24.45;;
26530;SDS011;14201;43.188;24.160;2024-03-07T04:10:07;39.38;;;25.52;;
26530;SDS011;14201;43.188;24.160;2024-03-07T04:12:35;38.67;;;24.95;;
26530;SDS011;14201;43.188;24.160;2024-03-07T04:15:03;35.08;;;24.25;;
26530;SDS011;14201;43.188;24.160;2024-03-07T04:17:29;35.15;;;23.00;;
26530;SDS011;14201;43.188;24.160;2024-03-07T04:19:56;37.53;;;24.85;;
26530;SDS011;14201;43.188;24.160;2024-03-07T04:22:23;37.88;;;24.02;;
26530;SDS011;14201;43.188;24.160;2024-03-07T04:24:49;32.70;;;22.75;;
26530;SDS011;14201;43.188;24.160;2024-03-07T04:27:19;38.03;;;24.08;;
26530;SDS011;14201;43.188;24.160;2024-03-07T04:29:46;33.97;;;23.65;;
26530;SDS011;14201;43.188;24.160;2024-03-07T04:32:13;33.50;;;23.13;;
26530;SDS011;14201;43.188;24.160;2024-03-07T04:34:39;34.97;;;22.92;;
26530;SDS011;14201;43.188;24.160;2024-03-07T04:37:05;33.50;;;23.13;;
26530;SDS011;14201;43.188;24.160;2024-03-07T04:39:31;34.17;;;23.90;;
26530;SDS011;14201;43.188;24.160;2024-03-07T04:42:00;36.58;;;23.73;;
26530;SDS011;14201;43.188;24.160;2024-03-07T04:44:29;32.53;;;23.23;;
26530;SDS011;14201;43.188;24.160;2024-03-07T04:46:56;36.50;;;23.10;;
26530;SDS011;14201;43.188;24.160;2024-03-07T04:49:23;39.65;;;25.48;;
26530;SDS011;14201;43.188;24.160;2024-03-07T04:51:52;35.67;;;24.73;;
26530;SDS011;14201;43.188;24.160;2024-03-07T04:54:20;35.92;;;25.35;;
26530;SDS011;14201;43.188;24.160;2024-03-07T04:56:46;37.97;;;24.75;;
26530;SDS011;14201;43.188;24.160;2024-03-07T04:59:13;36.80;;;24.20;;
26530;SDS011;14201;43.188;24.160;2024-03-07T05:01:42;36.20;;;24.58;;
26530;SDS011;14201;43.188;24.160;2024-03-07T05:04:08;39.28;;;24.98;;
26530;SDS011;14201;43.188;24.160;2024-03-07T05:06:34;39.58;;;24.52;;
26530;SDS011;14201;43.188;24.160;2024-03-07T05:09:01;40.88;;;25.52;;
26530;SDS011;14201;43.188;24.160;2024-03-07T05:11:31;39.55;;;26.40;;
26530;SDS011;14201;43.188;24.160;2024-03-07T05:13:57;39.72;;;26.02;;
26530;SDS011;14201;43.188;24.160;2024-03-07T05:16:28;37.63;;;24.98;;
26530;SDS011;14201;43.188;24.160;2024-03-07T05:18:55;41.75;;;26.67;;
26530;SDS011;14201;43.188;24.160;2024-03-07T05:21:24;37.63;;;23.30;;
26530;SDS011;14201;43.188;24.160;2024-03-07T05:23:59;34.83;;;23.83;;
26530;SDS011;14201;43.188;24.160;2024-03-07T05:26:26;34.38;;;23.15;;
26530;SDS011;14201;43.188;24.160;2024-03-07T05:28:52;37.30;;;23.42;;
26530;SDS011;14201;43.188;24.160;2024-03-07T05:31:21;36.72;;;24.27;;
26530;SDS011;14201;43.188;24.160;2024-03-07T05:33:47;38.42;;;23.08;;
26530;SDS011;14201;43.188;24.160;2024-03-07T05:36:13;34.45;;;23.70;;
26530;SDS011;14201;43.188;24.160;2024-03-07T05:38:40;34.67;;;24.02;;
26530;SDS011;14201;43.188;24.160;2024-03-07T05:41:12;38.90;;;24.48;;
26530;SDS011;14201;43.188;24.160;2024-03-07T05:43:38;37.95;;;24.05;;
26530;SDS011;14201;43.188;24.160;2024-03-07T05:46:04;35.90;;;24.27;;
26530;SDS011;14201;43.188;24.160;2024-03-07T05:48:32;34.70;;;25.15;;
26530;SDS011;14201;43.188;24.160;2024-03-07T05:50:59;42.80;;;29.88;;
26530;SDS011;14201;43.188;24.160;2024-03-07T05:53:25;47.72;;;31.17;;
26530;SDS011;14201;43.188;24.160;2024-03-07T05:55:51;42.05;;;31.05;;
26530;SDS011;14201;43.188;24.160;2024-03-07T05:58:17;43.85;;;32.33;;
26530;SDS011;14201;43.188;24.160;2024-03-07T06:00:44;46.90;;;32.20;;
26530;SDS011;14201;43.188;24.160;2024-03-07T06:03:15;51.03;;;32.85;;
26530;SDS011;14201;43.188;24.160;2024-03-07T06:05:49;39.63;;;28.15;;
26530;SDS011;14201;43.188;24.160;2024-03-07T06:08:15;40.67;;;27.98;;
26530;SDS011;14201;43.188;24.160;2024-03-07T06:10:42;46.15;;;30.02;;
26530;SDS011;14201;43.188;24.160;2024-03-07T06:13:10;37.38;;;26.63;;
26530;SDS011;14201;43.188;24.160;2024-03-07T06:15:37;36.92;;;25.50;;
26530;SDS011;14201;43.188;24.160;2024-03-07T06:18:03;34.42;;;24.20;;
26530;SDS011;14201;43.188;24.160;2024-03-07T06:20:29;35.78;;;22.83;;
26530;SDS011;14201;43.188;24.160;2024-03-07T06:22:55;42.88;;;31.15;;
26530;SDS011;14201;43.188;24.160;2024-03-07T06:25:22;31.80;;;20.27;;
26530;SDS011;14201;43.188;24.160;2024-03-07T06:28:12;32.17;;;19.17;;
26530;SDS011;14201;43.188;24.160;2024-03-07T06:30:38;31.67;;;20.92;;
26530;SDS011;14201;43.188;24.160;2024-03-07T06:33:05;30.27;;;21.15;;
26530;SDS011;14201;43.188;24.160;2024-03-07T06:35:31;33.33;;;21.38;;
26530;SDS011;14201;43.188;24.160;2024-03-07T06:38:02;34.60;;;22.85;;
26530;SDS011;14201;43.188;24.160;2024-03-07T06:40:28;38.38;;;24.00;;
26530;SDS011;14201;43.188;24.160;2024-03-07T06:42:55;35.63;;;24.40;;
26530;SDS011;14201;43.188;24.160;2024-03-07T06:45:20;35.30;;;23.83;;
26530;SDS011;14201;43.188;24.160;2024-03-07T06:47:46;36.90;;;23.05;;
26530;SDS011;14201;43.188;24.160;2024-03-07T06:50:12;35.15;;;23.92;;
26530;SDS011;14201;43.188;24.160;2024-03-07T06:52:42;34.25;;;24.25;;
26530;SDS011;14201;43.188;24.160;2024-03-07T06:55:09;36.00;;;25.42;;
26530;SDS011;14201;43.188;24.160;2024-03-07T06:57:36;37.35;;;25.85;;
26530;SDS011;14201;43.188;24.160;2024-03-07T07:00:02;39.20;;;26.38;;
26530;SDS011;14201;43.188;24.160;2024-03-07T07:02:37;39.42;;;27.17;;
26530;SDS011;14201;43.188;24.160;2024-03-07T07:05:04;37.97;;;25.90;;
26530;SDS011;14201;43.188;24.160;2024-03-07T07:07:36;40.50;;;26.40;;
26530;SDS011;14201;43.188;24.160;2024-03-07T07:10:07;36.22;;;25.92;;
26530;SDS011;14201;43.188;24.160;2024-03-07T07:12:38;37.90;;;25.52;;
26530;SDS011;14201;43.188;24.160;2024-03-07T07:15:03;40.58;;;27.08;;
26530;SDS011;14201;43.188;24.160;2024-03-07T07:17:29;39.53;;;26.60;;
26530;SDS011;14201;43.188;24.160;2024-03-07T07:19:58;36.58;;;24.10;;
26530;SDS011;14201;43.188;24.160;2024-03-07T07:22:25;37.92;;;25.30;;
26530;SDS011;14201;43.188;24.160;2024-03-07T07:24:51;41.83;;;27.58;;
26530;SDS011;14201;43.188;24.160;2024-03-07T07:27:16;36.28;;;25.02;;
26530;SDS011;14201;43.188;24.160;2024-03-07T07:29:43;40.30;;;27.65;;
26530;SDS011;14201;43.188;24.160;2024-03-07T07:32:09;39.70;;;28.13;;
26530;SDS011;14201;43.188;24.160;2024-03-07T07:34:37;46.78;;;32.20;;
26530;SDS011;14201;43.188;24.160;2024-03-07T07:37:04;43.67;;;29.25;;
26530;SDS011;14201;43.188;24.160;2024-03-07T07:39:30;45.70;;;29.27;;
26530;SDS011;14201;43.188;24.160;2024-03-07T07:41:56;38.65;;;26.85;;
26530;SDS011;14201;43.188;24.160;2024-03-07T07:44:22;37.65;;;27.30;;
26530;SDS011;14201;43.188;24.160;2024-03-07T07:46:48;38.83;;;26.67;;
26530;SDS011;14201;43.188;24.160;2024-03-07T07:49:14;39.85;;;28.27;;
26530;SDS011;14201;43.188;24.160;2024-03-07T07:51:41;39.45;;;26.63;;
26530;SDS011;14201;43.188;24.160;2024-03-07T07:54:07;34.78;;;24.40;;
26530;SDS011;14201;43.188;24.160;2024-03-07T07:56:34;36.50;;;25.50;;
26530;SDS011;14201;43.188;24.160;2024-03-07T07:59:00;34.72;;;24.95;;
26530;SDS011;14201;43.188;24.160;2024-03-07T08:01:28;34.42;;;23.92;;
26530;SDS011;14201;43.188;24.160;2024-03-07T08:03:54;34.72;;;23.55;;
26530;SDS011;14201;43.188;24.160;2024-03-07T08:06:19;37.45;;;25.02;;
26530;SDS011;14201;43.188;24.160;2024-03-07T08:08:45;33.28;;;24.02;;
26530;SDS011;14201;43.188;24.160;2024-03-07T08:11:11;35.70;;;23.38;;
26530;SDS011;14201;43.188;24.160;2024-03-07T08:13:39;37.58;;;23.17;;
26530;SDS011;14201;43.188;24.160;2024-03-07T08:16:05;39.00;;;23.88;;
26530;SDS011;14201;43.188;24.160;2024-03-07T08:18:31;35.15;;;24.23;;
26530;SDS011;14201;43.188;24.160;2024-03-07T08:20:57;39.13;;;24.05;;
26530;SDS011;14201;43.188;24.160;2024-03-07T08:23:23;36.53;;;23.33;;
26530;SDS011;14201;43.188;24.160;2024-03-07T08:25:54;33.60;;;23.15;;
26530;SDS011;14201;43.188;24.160;2024-03-07T08:28:20;32.83;;;22.75;;
26530;SDS011;14201;43.188;24.160;2024-03-07T08:30:45;32.70;;;24.02;;
26530;SDS011;14201;43.188;24.160;2024-03-07T08:33:11;32.63;;;22.73;;
26530;SDS011;14201;43.188;24.160;2024-03-07T08:35:38;32.88;;;21.60;;
26530;SDS011;14201;43.188;24.160;2024-03-07T08:38:04;28.98;;;21.13;;
26530;SDS011;14201;43.188;24.160;2024-03-07T08:40:30;29.95;;;20.25;;
26530;SDS011;14201;43.188;24.160;2024-03-07T08:42:57;31.73;;;21.10;;
26530;SDS011;14201;43.188;24.160;2024-03-07T08:45:24;28.02;;;18.80;;
26530;SDS011;14201;43.188;24.160;2024-03-07T08:47:51;29.90;;;20.42;;
26530;SDS011;14201;43.188;24.160;2024-03-07T08:50:22;29.33;;;19.45;;
26530;SDS011;14201;43.188;24.160;2024-03-07T08:52:49;31.77;;;21.15;;
26530;SDS011;14201;43.188;24.160;2024-03-07T08:55:16;27.70;;;19.42;;
26530;SDS011;14201;43.188;24.160;2024-03-07T08:57:45;29.50;;;21.63;;
26530;SDS011;14201;43.188;24.160;2024-03-07T09:00:11;32.35;;;22.60;;
26530;SDS011;14201;43.188;24.160;2024-03-07T09:02:48;30.65;;;21.63;;
26530;SDS011;14201;43.188;24.160;2024-03-07T09:05:17;32.15;;;20.48;;
26530;SDS011;14201;43.188;24.160;2024-03-07T09:07:44;31.48;;;21.70;;
26530;SDS011;14201;43.188;24.160;2024-03-07T09:10:12;28.40;;;19.42;;
26530;SDS011;14201;43.188;24.160;2024-03-07T09:12:39;27.58;;;20.08;;
26530;SDS011;14201;43.188;24.160;2024-03-07T09:15:05;25.35;;;17.92;;
26530;SDS011;14201;43.188;24.160;2024-03-07T09:17:31;28.67;;;17.73;;
26530;SDS011;14201;43.188;24.160;2024-03-07T09:19:57;28.05;;;19.02;;
26530;SDS011;14201;43.188;24.160;2024-03-07T09:22:23;24.33;;;17.85;;
26530;SDS011;14201;43.188;24.160;2024-03-07T09:24:48;25.77;;;18.15;;
26530;SDS011;14201;43.188;24.160;2024-03-07T09:27:14;26.45;;;19.33;;
26530;SDS011;14201;43.188;24.160;2024-03-07T09:29:45;24.70;;;18.60;;
26530;SDS011;14201;43.188;24.160;2024-03-07T09:32:12;27.25;;;19.42;;
26530;SDS011;14201;43.188;24.160;2024-03-07T09:34:38;26.40;;;19.50;;
26530;SDS011;14201;43.188;24.160;2024-03-07T09:37:04;31.58;;;20.17;;
26530;SDS011;14201;43.188;24.160;2024-03-07T09:39:32;24.65;;;18.60;;
26530;SDS011;14201;43.188;24.160;2024-03-07T09:42:00;26.73;;;18.48;;
26530;SDS011;14201;43.188;24.160;2024-03-07T09:44:27;25.30;;;18.58;;
26530;SDS011;14201;43.188;24.160;2024-03-07T09:46:54;24.73;;;17.40;;
26530;SDS011;14201;43.188;24.160;2024-03-07T09:49:21;24.48;;;17.77;;
26530;SDS011;14201;43.188;24.160;2024-03-07T09:51:47;26.10;;;17.88;;
26530;SDS011;14201;43.188;24.160;2024-03-07T09:54:20;23.67;;;14.85;;
26530;SDS011;14201;43.188;24.160;2024-03-07T09:56:49;21.73;;;15.25;;
26530;SDS011;14201;43.188;24.160;2024-03-07T09:59:18;24.35;;;16.63;;
26530;SDS011;14201;43.188;24.160;2024-03-07T10:01:46;23.63;;;15.57;;
26530;SDS011;14201;43.188;24.160;2024-03-07T10:04:13;26.02;;;16.17;;
26530;SDS011;14201;43.188;24.160;2024-03-07T10:06:45;22.55;;;14.73;;
26530;SDS011;14201;43.188;24.160;2024-03-07T10:09:11;23.27;;;18.25;;
26530;SDS011;14201;43.188;24.160;2024-03-07T10:11:41;24.67;;;16.73;;
26530;SDS011;14201;43.188;24.160;2024-03-07T10:14:07;22.83;;;17.08;;
26530;SDS011;14201;43.188;24.160;2024-03-07T10:16:34;25.52;;;17.63;;
26530;SDS011;14201;43.188;24.160;2024-03-07T10:18:59;26.88;;;15.57;;
26530;SDS011;14201;43.188;24.160;2024-03-07T10:21:29;19.73;;;13.18;;
26530;SDS011;14201;43.188;24.160;2024-03-07T10:24:04;25.60;;;17.08;;
26530;SDS011;14201;43.188;24.160;2024-03-07T10:26:33;23.73;;;15.93;;
26530;SDS011;14201;43.188;24.160;2024-03-07T10:28:59;21.30;;;16.48;;
26530;SDS011;14201;43.188;24.160;2024-03-07T10:31:29;22.10;;;16.10;;
26530;SDS011;14201;43.188;24.160;2024-03-07T10:33:58;23.45;;;16.20;;
26530;SDS011;14201;43.188;24.160;2024-03-07T10:36:33;25.08;;;15.55;;
26530;SDS011;14201;43.188;24.160;2024-03-07T10:38:59;26.35;;;17.02;;
26530;SDS011;14201;43.188;24.160;2024-03-07T10:41:28;21.02;;;16.08;;
26530;SDS011;14201;43.188;24.160;2024-03-07T10:43:56;23.65;;;16.15;;
26530;SDS011;14201;43.188;24.160;2024-03-07T10:46:24;26.90;;;16.77;;
26530;SDS011;14201;43.188;24.160;2024-03-07T10:48:51;24.15;;;16.73;;
26530;SDS011;14201;43.188;24.160;2024-03-07T10:51:22;25.23;;;16.40;;
26530;SDS011;14201;43.188;24.160;2024-03-07T10:59:33;24.42;;;15.25;;
26530;SDS011;14201;43.188;24.160;2024-03-07T11:04:46;29.25;;;17.08;;
26530;SDS011;14201;43.188;24.160;2024-03-07T11:07:15;23.57;;;16.87;;
26530;SDS011;14201;43.188;24.160;2024-03-07T11:09:41;22.58;;;16.35;;
26530;SDS011;14201;43.188;24.160;2024-03-07T11:12:11;24.83;;;17.50;;
26530;SDS011;14201;43.188;24.160;2024-03-07T11:14:36;30.65;;;20.10;;
26530;SDS011;14201;43.188;24.160;2024-03-07T11:17:04;35.38;;;23.33;;
26530;SDS011;14201;43.188;24.160;2024-03-07T11:19:33;43.33;;;28.73;;
26530;SDS011;14201;43.188;24.160;2024-03-07T11:22:02;37.67;;;20.25;;
26530;SDS011;14201;43.188;24.160;2024-03-07T11:24:40;24.73;;;16.65;;
26530;SDS011;14201;43.188;24.160;2024-03-07T11:27:08;27.13;;;19.77;;
26530;SDS011;14201;43.188;24.160;2024-03-07T11:29:48;27.15;;;17.27;;
26530;SDS011;14201;43.188;24.160;2024-03-07T11:32:18;22.75;;;15.50;;
26530;SDS011;14201;43.188;24.160;2024-03-07T11:34:48;24.33;;;16.23;;
26530;SDS011;14201;43.188;24.160;2024-03-07T11:40:13;24.33;;;17.55;;
26530;SDS011;14201;43.188;24.160;2024-03-07T11:42:59;32.33;;;20.00;;
26530;SDS011;14201;43.188;24.160;2024-03-07T11:45:30;31.38;;;20.92;;
26530;SDS011;14201;43.188;24.160;2024-03-07T11:48:03;24.77;;;18.73;;
26530;SDS011;14201;43.188;24.160;2024-03-07T11:50:34;23.90;;;17.30;;
26530;SDS011;14201;43.188;24.160;2024-03-07T11:53:04;23.92;;;17.20;;
26530;SDS011;14201;43.188;24.160;2024-03-07T11:55:35;24.45;;;17.25;;
26530;SDS011;14201;43.188;24.160;2024-03-07T11:58:14;24.52;;;17.23;;
26530;SDS011;14201;43.188;24.160;2024-03-07T12:00:46;25.42;;;17.38;;
26530;SDS011;14201;43.188;24.160;2024-03-07T12:03:13;27.00;;;18.35;;
26530;SDS011;14201;43.188;24.160;2024-03-07T12:05:42;23.23;;;17.27;;
26530;SDS011;14201;43.188;24.160;2024-03-07T12:08:10;28.00;;;17.52;;
26530;SDS011;14201;43.188;24.160;2024-03-07T12:10:40;27.30;;;17.08;;
26530;SDS011;14201;43.188;24.160;2024-03-07T12:13:12;25.30;;;16.95;;
26530;SDS011;14201;43.188;24.160;2024-03-07T12:15:41;34.40;;;17.77;;
26530;SDS011;14201;43.188;24.160;2024-03-07T12:18:07;29.08;;;17.92;;
26530;SDS011;14201;43.188;24.160;2024-03-07T12:20:36;23.83;;;16.75;;
26530;SDS011;14201;43.188;24.160;2024-03-07T12:23:03;29.38;;;16.92;;
26530;SDS011;14201;43.188;24.160;2024-03-07T12:25:34;22.35;;;16.67;;
26530;SDS011;14201;43.188;24.160;2024-03-07T12:28:04;22.10;;;16.35;;
26530;SDS011;14201;43.188;24.160;2024-03-07T12:33:11;20.67;;;15.98;;
26530;SDS011;14201;43.188;24.160;2024-03-07T12:35:39;24.17;;;16.30;;
26530;SDS011;14201;43.188;24.160;2024-03-07T12:38:08;25.67;;;16.23;;
26530;SDS011;14201;43.188;24.160;2024-03-07T12:40:36;20.15;;;15.38;;
26530;SDS011;14201;43.188;24.160;2024-03-07T12:43:12;22.10;;;16.00;;
26530;SDS011;14201;43.188;24.160;2024-03-07T12:45:51;20.63;;;15.32;;
26530;SDS011;14201;43.188;24.160;2024-03-07T12:48:20;23.97;;;16.80;;
26530;SDS011;14201;43.188;24.160;2024-03-07T12:50:49;27.40;;;18.42;;
26530;SDS011;14201;43.188;24.160;2024-03-07T12:53:22;28.02;;;18.80;;
26530;SDS011;14201;43.188;24.160;2024-03-07T12:58:14;26.23;;;18.00;;
26530;SDS011;14201;43.188;24.160;2024-03-07T13:00:40;26.20;;;17.63;;
26530;SDS011;14201;43.188;24.160;2024-03-07T13:03:07;23.70;;;17.45;;
26530;SDS011;14201;43.188;24.160;2024-03-07T13:05:35;24.25;;;18.48;;
26530;SDS011;14201;43.188;24.160;2024-03-07T13:10:31;25.35;;;18.45;;
26530;SDS011;14201;43.188;24.160;2024-03-07T13:12:57;26.67;;;19.50;;
26530;SDS011;14201;43.188;24.160;2024-03-07T13:15:22;26.92;;;20.38;;
26530;SDS011;14201;43.188;24.160;2024-03-07T13:17:49;32.08;;;21.15;;
26530;SDS011;14201;43.188;24.160;2024-03-07T13:20:18;33.65;;;22.27;;
26530;SDS011;14201;43.188;24.160;2024-03-07T13:22:48;33.25;;;22.45;;
26530;SDS011;14201;43.188;24.160;2024-03-07T13:25:17;31.75;;;22.45;;
26530;SDS011;14201;43.188;24.160;2024-03-07T13:27:57;33.63;;;23.65;;
26530;SDS011;14201;43.188;24.160;2024-03-07T13:30:26;33.15;;;23.00;;
26530;SDS011;14201;43.188;24.160;2024-03-07T13:32:56;32.17;;;22.75;;
26530;SDS011;14201;43.188;24.160;2024-03-07T13:35:23;32.03;;;23.73;;
26530;SDS011;14201;43.188;24.160;2024-03-07T13:37:50;30.98;;;21.80;;
26530;SDS011;14201;43.188;24.160;2024-03-07T13:40:19;31.67;;;22.55;;
26530;SDS011;14201;43.188;24.160;2024-03-07T13:42:51;34.85;;;23.00;;
26530;SDS011;14201;43.188;24.160;2024-03-07T13:45:20;35.78;;;24.02;;
26530;SDS011;14201;43.188;24.160;2024-03-07T13:47:47;32.70;;;24.13;;
26530;SDS011;14201;43.188;24.160;2024-03-07T13:50:16;33.38;;;22.80;;
26530;SDS011;14201;43.188;24.160;2024-03-07T13:52:45;32.75;;;23.55;;
26530;SDS011;14201;43.188;24.160;2024-03-07T13:55:50;35.50;;;24.50;;
26530;SDS011;14201;43.188;24.160;2024-03-07T14:12:51;38.67;;;24.85;;
26530;SDS011;14201;43.188;24.160;2024-03-07T14:24:37;34.58;;;24.73;;
26530;SDS011;14201;43.188;24.160;2024-03-07T14:32:36;43.15;;;27.88;;
26530;SDS011;14201;43.188;24.160;2024-03-07T14:43:14;39.83;;;26.08;;
26530;SDS011;14201;43.188;24.160;2024-03-07T14:45:44;39.78;;;27.23;;
26530;SDS011;14201;43.188;24.160;2024-03-07T14:48:12;34.40;;;22.20;;
26530;SDS011;14201;43.188;24.160;2024-03-07T14:50:41;41.60;;;28.48;;
26530;SDS011;14201;43.188;24.160;2024-03-07T14:53:10;39.28;;;27.55;;
26530;SDS011;14201;43.188;24.160;2024-03-07T14:55:37;38.00;;;27.27;;
26530;SDS011;14201;43.188;24.160;2024-03-07T14:58:05;45.58;;;28.50;;
26530;SDS011;14201;43.188;24.160;2024-03-07T15:00:35;41.65;;;29.00;;
26530;SDS011;14201;43.188;24.160;2024-03-07T15:03:07;44.20;;;27.25;;
26530;SDS011;14201;43.188;24.160;2024-03-07T15:05:35;43.40;;;28.55;;
26530;SDS011;14201;43.188;24.160;2024-03-07T15:08:01;46.05;;;29.55;;